Terminal Aerodrome Forecast
Issued by NWS Shreveport, LA

Home | Current Version | Previous Version | Text Only | Print | Product List | Glossary On
Versions: 1 2 3 4 5 6 7 8 9 10 11 12 13 14 15 16 17 18 19 20 21 22 23 24 25
000
FTUS44 KSHV 251744
TAFLFK
TAF
KLFK 251744Z 2518/2618 15008KT P6SM VCSH SCT023 BKN040
      TEMPO 2518/2520 BKN023
     FM252000 23008KT P6SM SCT030 BKN035
     FM260100 VRB03KT P6SM SCT040 BKN250
     FM260600 VRB03KT P6SM BKN015
     FM261200 32004KT P6SM VCSH BKN015
     FM261500 32005KT 6SM -RA BR OVC020=

USA.gov is the U.S. government's official web portal to all federal, state and local government web resources and services.